Time;durP1;ratioP1;P1;durP2;ratioP2;P2;SDS_P1;SDS_P2;PMS_P1;PMS_P2;Temp;Humidity;BMP_temperature;BMP_pressure;BME280_temperature;BME280_humidity;BME280_pressure;Samples;Min_cycle;Max_cycle;Signal;HPM_P1;HPM_P2
2023/05/29 00:02:23;;;;;;;11.25;6.40;;;17.70;76.30;;;;;;5053215;28;20409;-49
2023/05/29 00:05:12;;;;;;;10.88;6.78;;;17.70;76.60;;;;;;5049854;28;20022;-47
2023/05/29 00:07:58;;;;;;;9.55;6.10;;;17.70;76.90;;;;;;5060165;28;20040;-49
2023/05/29 00:10:44;;;;;;;10.38;6.13;;;17.50;77.40;;;;;;5034152;28;20662;-51
2023/05/29 00:13:30;;;;;;;9.75;6.88;;;17.50;77.80;;;;;;5034651;28;20052;-50
2023/05/29 00:16:17;;;;;;;9.77;6.28;;;17.30;78.40;;;;;;5038720;28;20021;-48
2023/05/29 00:19:03;;;;;;;9.80;7.20;;;17.20;78.80;;;;;;5052957;28;20036;-48
2023/05/29 00:21:49;;;;;;;10.45;5.93;;;17.20;79.10;;;;;;5044669;28;20025;-48
2023/05/29 00:24:35;;;;;;;11.02;6.47;;;17.30;79.20;;;;;;5034945;28;20044;-48
2023/05/29 00:27:21;;;;;;;11.20;6.00;;;17.20;79.70;;;;;;5034132;28;20076;-52
2023/05/29 00:30:08;;;;;;;9.05;6.20;;;17.20;79.70;;;;;;5034605;28;20025;-47
2023/05/29 00:32:53;;;;;;;9.40;6.03;;;17.20;79.90;;;;;;5014530;28;20022;-48
2023/05/29 00:35:40;;;;;;;9.23;6.35;;;17.10;80.00;;;;;;5032964;28;20041;-48
2023/05/29 00:38:26;;;;;;;11.50;6.70;;;17.10;80.30;;;;;;5053837;28;20033;-51
2023/05/29 00:41:15;;;;;;;8.60;5.88;;;17.00;80.50;;;;;;5053698;28;20036;-47
2023/05/29 00:44:01;;;;;;;8.85;6.20;;;17.00;80.70;;;;;;5054294;28;20074;-50
2023/05/29 00:46:49;;;;;;;8.98;6.13;;;17.00;81.10;;;;;;5052498;28;20501;-53
2023/05/29 00:49:37;;;;;;;11.15;6.85;;;17.00;81.40;;;;;;5055098;28;20456;-48
2023/05/29 00:52:25;;;;;;;13.30;6.50;;;16.90;81.40;;;;;;5053752;28;20013;-48
2023/05/29 00:55:11;;;;;;;8.77;6.03;;;16.80;82.00;;;;;;5051665;28;20104;-47
2023/05/29 00:57:57;;;;;;;8.73;6.10;;;16.90;82.00;;;;;;5053512;28;20029;-47
2023/05/29 01:00:44;;;;;;;11.25;6.63;;;16.80;82.40;;;;;;5053508;28;20017;-50
2023/05/29 01:03:32;;;;;;;8.30;6.30;;;16.60;82.70;;;;;;5054033;28;20022;-48
2023/05/29 01:06:19;;;;;;;11.32;6.60;;;16.60;83.10;;;;;;5049832;28;20025;-48
2023/05/29 01:09:05;;;;;;;10.32;6.63;;;16.60;83.10;;;;;;5050425;28;20029;-51
2023/05/29 01:12:30;;;;;;;10.02;6.57;;;16.60;83.10;;;;;;5034314;28;20030;-47
2023/05/29 01:15:47;;;;;;;8.35;6.03;;;16.60;83.00;;;;;;5034541;28;20026;-48
2023/05/29 01:18:53;;;;;;;10.13;6.22;;;16.50;83.60;;;;;;5034331;28;20109;-47
2023/05/29 01:21:46;;;;;;;9.35;6.28;;;16.60;83.80;;;;;;5034839;28;20037;-47
2023/05/29 01:24:43;;;;;;;9.60;6.05;;;16.70;83.30;;;;;;5053273;28;20025;-48
2023/05/29 01:27:32;;;;;;;10.38;6.53;;;16.60;82.90;;;;;;5054025;28;20025;-49
2023/05/29 01:30:20;;;;;;;10.10;6.30;;;16.50;83.70;;;;;;5052704;28;20393;-48
2023/05/29 01:33:06;;;;;;;10.80;6.10;;;16.40;83.90;;;;;;5053131;28;20040;-48
2023/05/29 01:35:52;;;;;;;9.32;5.95;;;16.50;83.60;;;;;;5043930;28;20041;-47
2023/05/29 01:38:38;;;;;;;12.18;7.53;;;16.40;83.40;;;;;;5035020;28;20102;-47
2023/05/29 01:41:25;;;;;;;9.55;6.55;;;16.40;83.60;;;;;;5034174;28;20026;-48
2023/05/29 01:44:12;;;;;;;8.88;6.10;;;16.30;84.00;;;;;;5032603;28;20037;-49
2023/05/29 01:46:58;;;;;;;12.32;6.53;;;16.20;84.70;;;;;;5032229;28;20379;-52
2023/05/29 01:49:47;;;;;;;9.27;6.13;;;16.20;84.60;;;;;;5033050;28;20033;-49
2023/05/29 01:52:33;;;;;;;13.18;7.03;;;16.10;85.00;;;;;;5032877;28;20437;-49
2023/05/29 01:55:19;;;;;;;8.75;6.50;;;16.00;85.20;;;;;;5040286;28;20017;-49
2023/05/29 01:58:06;;;;;;;9.75;6.70;;;15.90;85.70;;;;;;5051843;28;20029;-48
2023/05/29 02:00:53;;;;;;;12.05;6.75;;;15.70;86.40;;;;;;5053515;28;20060;-48
2023/05/29 02:03:39;;;;;;;13.27;6.57;;;15.70;86.50;;;;;;5051339;28;20147;-48
2023/05/29 02:06:25;;;;;;;10.43;6.43;;;15.70;86.50;;;;;;5051226;28;20025;-48
2023/05/29 02:09:11;;;;;;;8.35;6.63;;;15.50;87.20;;;;;;5051382;28;20107;-48
2023/05/29 02:11:57;;;;;;;13.82;6.47;;;15.40;87.70;;;;;;5038293;28;20516;-52
2023/05/29 02:14:43;;;;;;;9.27;7.00;;;15.40;88.20;;;;;;5031975;28;20029;-49
2023/05/29 02:17:30;;;;;;;9.32;6.70;;;15.40;87.70;;;;;;5032124;28;20027;-49
2023/05/29 02:20:17;;;;;;;12.05;6.57;;;15.40;88.30;;;;;;5032611;28;20048;-48
2023/05/29 02:23:03;;;;;;;11.88;8.07;;;15.40;88.50;;;;;;5033010;28;20109;-48
2023/05/29 02:25:49;;;;;;;16.70;9.65;;;15.30;88.50;;;;;;5037027;28;20065;-47
2023/05/29 02:28:36;;;;;;;18.73;12.10;;;15.30;89.20;;;;;;5050483;28;20108;-48
2023/05/29 02:31:22;;;;;;;11.32;7.13;;;15.30;88.70;;;;;;5047928;28;20025;-48
2023/05/29 02:34:08;;;;;;;10.35;6.38;;;15.20;89.00;;;;;;5051955;28;20078;-47
2023/05/29 02:36:54;;;;;;;9.98;6.15;;;15.10;89.70;;;;;;5050837;28;20029;-55
2023/05/29 02:39:40;;;;;;;11.52;6.70;;;15.10;89.60;;;;;;5051004;28;20021;-47
2023/05/29 02:42:26;;;;;;;9.43;6.95;;;15.10;90.00;;;;;;5051191;28;20100;-48
2023/05/29 02:45:12;;;;;;;10.43;6.80;;;15.00;89.80;;;;;;5051484;28;20033;-51
2023/05/29 02:47:59;;;;;;;10.13;6.65;;;14.90;90.30;;;;;;5050999;28;20022;-48
2023/05/29 02:50:45;;;;;;;13.95;7.95;;;14.50;91.10;;;;;;5052804;28;20030;-49
2023/05/29 02:53:31;;;;;;;12.07;6.78;;;14.50;91.10;;;;;;5046768;28;20449;-50
2023/05/29 02:56:17;;;;;;;10.27;6.68;;;14.60;91.30;;;;;;5032580;28;20030;-48
2023/05/29 02:59:03;;;;;;;8.75;6.38;;;14.50;91.30;;;;;;5032509;28;20036;-49
2023/05/29 03:01:49;;;;;;;9.25;7.03;;;14.60;91.50;;;;;;5033189;28;20035;-47
2023/05/29 03:04:35;;;;;;;13.07;6.93;;;14.50;91.50;;;;;;5031580;28;20520;-49
2023/05/29 03:07:21;;;;;;;12.80;7.25;;;14.40;91.80;;;;;;5035065;28;20037;-48
2023/05/29 03:10:07;;;;;;;14.25;6.70;;;14.40;91.90;;;;;;5050599;28;20524;-46
2023/05/29 03:12:54;;;;;;;10.88;6.95;;;14.30;92.30;;;;;;5050831;28;20025;-46
2023/05/29 03:15:40;;;;;;;9.98;6.68;;;14.30;92.70;;;;;;5051531;28;20659;-50
2023/05/29 03:18:25;;;;;;;12.27;7.32;;;14.30;92.90;;;;;;5050260;28;20037;-47
2023/05/29 03:21:12;;;;;;;13.65;8.00;;;14.20;92.90;;;;;;5050906;28;20028;-48
2023/05/29 03:23:58;;;;;;;15.07;7.10;;;14.20;93.40;;;;;;5049129;28;20096;-48
2023/05/29 03:26:43;;;;;;;9.32;6.70;;;14.10;93.70;;;;;;5050180;28;20037;-52
2023/05/29 03:29:31;;;;;;;13.25;7.68;;;14.00;93.90;;;;;;5052859;28;20018;-48
2023/05/29 03:32:17;;;;;;;10.95;7.45;;;13.90;94.30;;;;;;5054599;28;20028;-49
2023/05/29 03:35:03;;;;;;;15.25;7.57;;;13.90;94.50;;;;;;5054521;28;20032;-49
2023/05/29 03:37:49;;;;;;;13.23;8.48;;;13.90;94.60;;;;;;5053591;28;20104;-50
2023/05/29 03:40:35;;;;;;;11.70;7.65;;;13.90;94.70;;;;;;5054786;28;20493;-47
2023/05/29 03:43:21;;;;;;;13.55;8.35;;;13.90;94.80;;;;;;5053965;28;20067;-49
2023/05/29 03:46:07;;;;;;;17.33;8.00;;;13.90;95.00;;;;;;5054033;28;20405;-49
2023/05/29 03:48:53;;;;;;;12.32;8.35;;;13.90;95.10;;;;;;5053992;28;20029;-49
2023/05/29 03:51:39;;;;;;;12.77;8.60;;;13.70;95.10;;;;;;5054514;28;20075;-50
2023/05/29 03:54:25;;;;;;;13.30;7.72;;;13.70;95.40;;;;;;5014286;28;20030;-47
2023/05/29 03:57:11;;;;;;;18.35;9.05;;;13.70;95.80;;;;;;5015803;28;20561;-49
2023/05/29 03:59:57;;;;;;;11.27;7.55;;;13.60;95.90;;;;;;5015476;28;20542;-49
2023/05/29 04:02:43;;;;;;;12.95;8.10;;;13.60;96.20;;;;;;5015314;28;20026;-48
2023/05/29 04:05:29;;;;;;;17.25;8.43;;;13.60;96.50;;;;;;5020293;28;20112;-49
2023/05/29 04:08:15;;;;;;;11.30;7.57;;;13.60;96.40;;;;;;5036144;28;20402;-48
2023/05/29 04:11:03;;;;;;;12.95;7.93;;;13.70;96.40;;;;;;5053714;28;20037;-47
2023/05/29 04:13:49;;;;;;;15.15;8.13;;;13.80;96.30;;;;;;5054276;28;20056;-50
2023/05/29 04:16:35;;;;;;;11.88;7.22;;;13.80;96.30;;;;;;5052295;28;20039;-47
2023/05/29 04:19:21;;;;;;;14.77;8.70;;;13.80;96.50;;;;;;5054420;28;20025;-47
2023/05/29 04:22:07;;;;;;;12.55;7.85;;;13.80;96.70;;;;;;5052773;28;20114;-47
2023/05/29 04:24:53;;;;;;;15.02;7.72;;;13.60;97.10;;;;;;5034659;28;20034;-47
2023/05/29 04:27:40;;;;;;;12.38;7.30;;;13.60;97.40;;;;;;5033647;28;20025;-46
2023/05/29 04:30:26;;;;;;;13.38;7.50;;;13.70;97.30;;;;;;5033962;28;20060;-47
2023/05/29 04:33:12;;;;;;;12.93;7.55;;;13.80;96.90;;;;;;5033373;28;20030;-48
2023/05/29 04:36:00;;;;;;;13.45;7.95;;;13.80;97.20;;;;;;5034297;28;20029;-50
2023/05/29 04:38:47;;;;;;;15.90;8.45;;;13.80;97.20;;;;;;5061611;28;20026;-47
2023/05/29 04:41:33;;;;;;;15.80;8.20;;;14.00;97.10;;;;;;5052683;28;20171;-47
2023/05/29 04:44:19;;;;;;;12.35;7.93;;;14.00;96.80;;;;;;5053166;28;20033;-52
2023/05/29 04:47:06;;;;;;;15.02;8.02;;;14.00;96.90;;;;;;5052789;28;20116;-47
2023/05/29 04:49:53;;;;;;;21.38;8.88;;;14.00;97.00;;;;;;5053659;28;20028;-49
2023/05/29 04:52:39;;;;;;;13.80;7.68;;;14.10;96.90;;;;;;5052803;28;20021;-48
2023/05/29 04:55:25;;;;;;;12.70;7.75;;;14.00;97.10;;;;;;5049371;28;20021;-47
2023/05/29 04:58:12;;;;;;;11.90;7.70;;;14.10;96.80;;;;;;5033909;28;20445;-46
2023/05/29 05:00:59;;;;;;;12.27;7.82;;;14.20;97.00;;;;;;5033625;28;20029;-47
2023/05/29 05:03:45;;;;;;;15.38;8.20;;;14.30;96.90;;;;;;5033843;28;20030;-47
2023/05/29 05:06:31;;;;;;;17.23;8.95;;;14.50;96.50;;;;;;5033520;28;20478;-48
2023/05/29 05:09:17;;;;;;;14.50;8.02;;;14.60;96.40;;;;;;5034005;28;20057;-48
2023/05/29 05:12:03;;;;;;;17.30;8.50;;;14.70;96.00;;;;;;5034307;28;20104;-48
2023/05/29 05:14:49;;;;;;;14.02;7.50;;;14.70;96.00;;;;;;5033792;28;20027;-47
2023/05/29 05:17:35;;;;;;;13.30;8.25;;;14.70;95.80;;;;;;5033372;28;20386;-49
2023/05/29 05:20:21;;;;;;;12.68;7.95;;;14.80;95.70;;;;;;5034195;28;20464;-47
2023/05/29 05:23:07;;;;;;;11.70;7.82;;;14.60;95.60;;;;;;5036016;28;20414;-48
2023/05/29 05:25:53;;;;;;;13.82;8.45;;;14.40;96.30;;;;;;5033635;28;20034;-46
2023/05/29 05:28:39;;;;;;;13.98;8.55;;;14.50;96.10;;;;;;5033957;28;20033;-46
2023/05/29 05:31:26;;;;;;;12.55;7.72;;;14.60;95.80;;;;;;5034896;28;20029;-47
2023/05/29 05:34:11;;;;;;;9.52;7.75;;;14.60;95.80;;;;;;5033977;28;20454;-47
2023/05/29 05:36:57;;;;;;;12.45;7.93;;;14.70;95.70;;;;;;5033902;28;20486;-49
2023/05/29 05:39:43;;;;;;;13.63;8.25;;;14.80;95.50;;;;;;5033958;28;20451;-46
2023/05/29 05:42:29;;;;;;;15.98;8.30;;;15.00;95.30;;;;;;5052771;28;20033;-48
2023/05/29 05:45:15;;;;;;;14.38;7.88;;;14.90;95.30;;;;;;5052497;28;20025;-47
2023/05/29 05:48:01;;;;;;;12.95;7.68;;;15.00;95.10;;;;;;5051843;28;20120;-47
2023/05/29 05:50:47;;;;;;;13.98;7.97;;;15.20;94.80;;;;;;5056593;28;20398;-49
2023/05/29 05:53:33;;;;;;;13.25;8.20;;;15.40;94.60;;;;;;5057369;28;20466;-47
2023/05/29 05:56:19;;;;;;;15.50;8.65;;;15.30;94.50;;;;;;5051848;28;20044;-48
2023/05/29 05:59:05;;;;;;;14.50;7.93;;;15.10;94.60;;;;;;5012639;28;20502;-47
2023/05/29 06:01:51;;;;;;;13.82;7.40;;;15.20;94.50;;;;;;5031076;28;20037;-47
2023/05/29 06:04:37;;;;;;;13.90;8.93;;;15.10;94.50;;;;;;5032910;28;20034;-46
2023/05/29 06:07:23;;;;;;;12.27;8.18;;;15.00;94.80;;;;;;5032678;28;20037;-49
2023/05/29 06:10:09;;;;;;;11.85;8.02;;;15.10;94.60;;;;;;5032582;28;20030;-50
2023/05/29 06:12:55;;;;;;;14.27;8.07;;;15.10;94.50;;;;;;5033772;28;20083;-50
2023/05/29 06:15:41;;;;;;;11.63;7.80;;;14.90;94.80;;;;;;5032749;28;20044;-50
2023/05/29 06:18:27;;;;;;;17.13;7.60;;;14.90;94.80;;;;;;5032142;28;20026;-48
2023/05/29 06:21:13;;;;;;;14.63;7.72;;;15.00;94.60;;;;;;5032683;28;20058;-48
2023/05/29 06:23:59;;;;;;;13.10;7.82;;;15.20;94.40;;;;;;5032345;28;20030;-48
2023/05/29 06:26:45;;;;;;;18.85;8.27;;;15.20;94.10;;;;;;5058662;28;20033;-47
2023/05/29 06:29:31;;;;;;;12.95;7.43;;;15.40;93.90;;;;;;5032775;28;20030;-48
2023/05/29 06:32:17;;;;;;;12.23;6.93;;;15.60;93.60;;;;;;5033098;28;20502;-46
2023/05/29 06:35:03;;;;;;;12.05;6.75;;;15.80;93.00;;;;;;5032629;28;20093;-47
2023/05/29 06:37:49;;;;;;;10.93;6.97;;;15.70;93.10;;;;;;5033529;28;20030;-50
2023/05/29 06:40:35;;;;;;;11.77;7.03;;;15.90;93.10;;;;;;5032587;28;20544;-47
2023/05/29 06:43:21;;;;;;;11.23;7.40;;;16.00;92.50;;;;;;5050099;28;20118;-47
2023/05/29 06:46:07;;;;;;;14.07;7.03;;;16.10;92.30;;;;;;5052610;28;20037;-48
2023/05/29 06:48:53;;;;;;;13.10;7.32;;;16.30;91.70;;;;;;5051608;28;20055;-47
2023/05/29 06:51:39;;;;;;;12.50;7.32;;;16.30;91.10;;;;;;5051561;28;20040;-49
2023/05/29 06:54:25;;;;;;;12.57;7.05;;;16.30;91.40;;;;;;5052981;28;20512;-47
2023/05/29 06:57:11;;;;;;;12.80;7.60;;;16.50;91.30;;;;;;5052101;28;20033;-49
2023/05/29 06:59:57;;;;;;;11.50;7.03;;;16.60;90.80;;;;;;5051754;28;20112;-48
2023/05/29 07:02:42;;;;;;;9.55;5.78;;;16.70;90.60;;;;;;5012860;28;20091;-48
2023/05/29 07:05:28;;;;;;;10.27;6.85;;;16.80;90.50;;;;;;5016942;28;20025;-47
2023/05/29 07:08:15;;;;;;;13.35;6.90;;;16.90;90.50;;;;;;5016630;28;20018;-48
2023/05/29 07:11:04;;;;;;;11.82;6.45;;;16.80;89.90;;;;;;5020262;28;20036;-45
2023/05/29 07:13:50;;;;;;;11.95;6.50;;;17.00;89.80;;;;;;5036526;28;20029;-48
2023/05/29 07:16:35;;;;;;;11.68;6.53;;;17.10;88.60;;;;;;5033573;28;20029;-47
2023/05/29 07:19:21;;;;;;;12.60;6.38;;;17.00;88.70;;;;;;5035823;28;20029;-48
2023/05/29 07:22:07;;;;;;;10.32;6.28;;;17.10;88.30;;;;;;5035754;28;20022;-48
2023/05/29 07:24:53;;;;;;;11.02;6.43;;;17.00;88.10;;;;;;5035777;28;20033;-47
2023/05/29 07:27:40;;;;;;;10.32;6.13;;;17.30;88.50;;;;;;5035682;28;20040;-49
2023/05/29 07:30:25;;;;;;;12.05;6.53;;;17.40;87.40;;;;;;5055127;28;20017;-47
2023/05/29 07:33:11;;;;;;;11.55;6.30;;;17.60;86.90;;;;;;5054510;28;20444;-49
2023/05/29 07:35:57;;;;;;;11.75;6.38;;;17.70;85.90;;;;;;5053167;28;20056;-49
2023/05/29 07:38:44;;;;;;;11.93;6.35;;;17.90;85.70;;;;;;5053561;28;20523;-48
2023/05/29 07:41:30;;;;;;;15.45;6.13;;;17.60;85.80;;;;;;5050524;28;20037;-48
2023/05/29 07:44:16;;;;;;;12.70;6.65;;;17.40;86.00;;;;;;5035280;28;20033;-49
2023/05/29 07:47:02;;;;;;;10.00;6.75;;;17.50;86.40;;;;;;5035000;28;20079;-50
2023/05/29 07:49:48;;;;;;;14.20;6.55;;;17.50;86.80;;;;;;5035508;28;20025;-49
2023/05/29 07:52:34;;;;;;;10.52;6.82;;;17.80;86.50;;;;;;5035810;28;20032;-51
2023/05/29 07:55:20;;;;;;;10.73;6.10;;;17.90;86.20;;;;;;5038736;28;20021;-46
2023/05/29 07:58:07;;;;;;;12.63;7.25;;;18.10;85.50;;;;;;5047745;28;20029;-49
2023/05/29 08:00:53;;;;;;;13.73;6.80;;;18.20;85.80;;;;;;5034409;28;20053;-44
2023/05/29 08:03:42;;;;;;;12.25;6.38;;;18.30;85.40;;;;;;5034799;28;20040;-52
2023/05/29 08:06:27;;;;;;;8.65;6.70;;;18.40;84.20;;;;;;5034851;28;20065;-46
2023/05/29 08:09:14;;;;;;;11.73;7.60;;;18.70;84.40;;;;;;5032879;28;20025;-46
2023/05/29 08:12:00;;;;;;;12.02;6.75;;;18.80;82.50;;;;;;5032118;28;20100;-47
2023/05/29 08:14:47;;;;;;;10.38;5.82;;;18.70;82.70;;;;;;5032249;28;20105;-47
2023/05/29 08:17:33;;;;;;;9.20;5.88;;;18.80;83.80;;;;;;5034570;28;20034;-51
2023/05/29 08:20:20;;;;;;;11.63;6.72;;;18.70;82.20;;;;;;5035288;28;20021;-51
2023/05/29 08:23:06;;;;;;;12.57;6.22;;;18.70;83.00;;;;;;5052611;28;20039;-46
2023/05/29 08:25:52;;;;;;;11.57;6.72;;;18.90;82.20;;;;;;5026316;28;20029;-51
2023/05/29 08:28:39;;;;;;;13.40;6.63;;;19.10;82.50;;;;;;5035681;28;20029;-44
2023/05/29 08:31:25;;;;;;;8.70;6.10;;;19.10;81.90;;;;;;5037252;28;20530;-46
2023/05/29 08:34:11;;;;;;;8.90;6.03;;;19.10;81.10;;;;;;5061620;28;20034;-48
2023/05/29 08:36:57;;;;;;;10.13;5.75;;;19.30;82.00;;;;;;5036466;28;20525;-46
2023/05/29 08:39:43;;;;;;;9.32;5.35;;;19.20;80.80;;;;;;5053336;28;20100;-46
2023/05/29 08:42:46;;;;;;;10.38;5.95;;;19.30;81.00;;;;;;5053533;28;20059;-48
2023/05/29 08:45:35;;;;;;;9.48;5.95;;;19.20;81.80;;;;;;5024480;28;20029;-48
2023/05/29 08:48:26;;;;;;;9.73;6.25;;;19.30;82.40;;;;;;5040887;28;20017;-48
2023/05/29 08:51:12;;;;;;;11.50;6.22;;;19.50;81.50;;;;;;5032912;28;20080;-48
2023/05/29 08:53:59;;;;;;;11.27;6.85;;;19.50;81.20;;;;;;5033461;28;20025;-48
2023/05/29 08:56:45;;;;;;;9.32;5.60;;;19.60;81.10;;;;;;5034437;28;20032;-48
2023/05/29 08:59:32;;;;;;;8.02;5.90;;;19.50;81.50;;;;;;5032856;28;20029;-49
2023/05/29 09:02:19;;;;;;;9.80;6.00;;;19.40;81.50;;;;;;5033251;28;20042;-48
2023/05/29 09:05:06;;;;;;;11.38;6.25;;;19.50;82.00;;;;;;5032091;28;20413;-48
2023/05/29 09:07:53;;;;;;;9.85;6.10;;;19.60;81.10;;;;;;5033643;28;20120;-51
2023/05/29 09:10:41;;;;;;;8.10;5.75;;;19.70;81.30;;;;;;5032857;28;20078;-48
2023/05/29 09:13:28;;;;;;;8.70;5.97;;;19.90;81.10;;;;;;5043161;28;20021;-54
2023/05/29 09:16:16;;;;;;;11.48;6.15;;;19.70;80.70;;;;;;5031735;28;20548;-51
2023/05/29 09:19:09;;;;;;;13.15;6.25;;;19.60;81.40;;;;;;5035045;28;20056;-51
2023/05/29 09:22:07;;;;;;;9.80;5.82;;;19.60;81.70;;;;;;5035504;28;20038;-53
2023/05/29 09:24:54;;;;;;;9.82;6.05;;;19.70;81.20;;;;;;5036271;28;20041;-53
2023/05/29 09:27:40;;;;;;;7.03;5.43;;;20.20;80.90;;;;;;5034101;28;20029;-53
2023/05/29 09:30:34;;;;;;;10.43;5.63;;;20.20;79.80;;;;;;5033210;28;20033;-53
2023/05/29 09:33:20;;;;;;;15.35;9.15;;;20.40;80.20;;;;;;5032802;28;20059;-52
2023/05/29 09:36:18;;;;;;;22.13;12.05;;;20.50;79.00;;;;;;5032854;28;20524;-55
2023/05/29 09:39:05;;;;;;;9.13;6.45;;;20.70;78.00;;;;;;5032953;28;20030;-52
2023/05/29 09:41:53;;;;;;;7.38;5.63;;;21.00;77.20;;;;;;5032211;28;20040;-51
2023/05/29 09:44:40;;;;;;;7.90;5.47;;;21.10;76.50;;;;;;5034260;28;20399;-49
2023/05/29 09:47:33;;;;;;;8.82;5.70;;;21.00;77.00;;;;;;5033300;28;20033;-52
2023/05/29 09:50:22;;;;;;;10.43;5.82;;;21.00;76.00;;;;;;5036000;28;20021;-48
2023/05/29 09:53:25;;;;;;;9.30;5.80;;;20.90;76.20;;;;;;5031966;28;20490;-47
2023/05/29 09:56:15;;;;;;;10.27;5.65;;;20.90;76.30;;;;;;5018694;28;20026;-46
2023/05/29 09:59:10;;;;;;;8.45;5.78;;;21.20;75.90;;;;;;5031529;28;20116;-46
2023/05/29 10:02:03;;;;;;;11.32;5.82;;;21.20;75.50;;;;;;5032426;28;20029;-49
2023/05/29 10:04:50;;;;;;;7.75;5.03;;;21.40;75.70;;;;;;5032346;28;20033;-48
2023/05/29 10:07:37;;;;;;;8.80;5.72;;;21.40;75.00;;;;;;5035825;28;20033;-48
2023/05/29 10:10:26;;;;;;;8.23;5.10;;;21.20;75.40;;;;;;5032353;28;20164;-46
2023/05/29 10:13:14;;;;;;;10.07;5.43;;;21.20;75.40;;;;;;5033364;28;20026;-50
2023/05/29 10:16:03;;;;;;;8.32;5.28;;;21.40;75.50;;;;;;5033037;28;20044;-47
2023/05/29 10:19:01;;;;;;;11.25;5.63;;;21.50;74.40;;;;;;5032598;28;20034;-50
2023/05/29 10:21:49;;;;;;;8.15;5.05;;;21.50;75.40;;;;;;5033249;28;20084;-48
2023/05/29 10:24:37;;;;;;;7.78;5.55;;;21.50;74.70;;;;;;5030910;28;20465;-51
2023/05/29 10:27:23;;;;;;;8.48;5.53;;;21.70;73.60;;;;;;5031450;28;20413;-47
2023/05/29 10:30:16;;;;;;;8.52;5.53;;;21.70;74.40;;;;;;5011895;28;20029;-51
2023/05/29 10:33:27;;;;;;;8.75;5.38;;;21.60;73.80;;;;;;5029212;28;20371;-50
2023/05/29 10:36:18;;;;;;;8.68;5.65;;;21.70;74.10;;;;;;5032892;28;20025;-50
2023/05/29 10:39:05;;;;;;;8.00;5.22;;;21.90;74.40;;;;;;5044874;28;20531;-46
2023/05/29 10:41:51;;;;;;;7.97;6.13;;;22.10;74.10;;;;;;5048348;28;20025;-49
2023/05/29 10:44:39;;;;;;;8.27;5.70;;;22.20;73.70;;;;;;5032865;28;20525;-47
2023/05/29 10:47:25;;;;;;;9.00;5.65;;;22.00;73.40;;;;;;5032643;28;20038;-50
2023/05/29 10:50:11;;;;;;;8.93;5.88;;;21.70;73.70;;;;;;5032607;28;20095;-47
2023/05/29 10:52:57;;;;;;;8.15;5.20;;;21.90;73.60;;;;;;5035956;28;20485;-49
2023/05/29 10:55:45;;;;;;;10.00;5.50;;;21.50;73.70;;;;;;5051710;28;20033;-48
2023/05/29 10:58:31;;;;;;;9.32;5.20;;;21.60;74.30;;;;;;5012538;28;20108;-48
2023/05/29 11:01:21;;;;;;;8.63;5.65;;;21.70;73.50;;;;;;5012993;28;20026;-48
2023/05/29 11:04:26;;;;;;;7.95;5.30;;;21.70;73.40;;;;;;5041278;28;20084;-51
2023/05/29 11:07:35;;;;;;;10.23;5.97;;;21.80;73.40;;;;;;5052020;28;20055;-51
2023/05/29 11:10:47;;;;;;;7.75;4.90;;;21.80;73.60;;;;;;5051756;28;20025;-48
2023/05/29 11:13:35;;;;;;;8.68;5.20;;;22.00;73.00;;;;;;5035939;28;20394;-48
2023/05/29 11:16:30;;;;;;;8.25;5.18;;;22.00;73.10;;;;;;5031194;28;20033;-47
2023/05/29 11:19:18;;;;;;;12.55;9.02;;;22.00;72.90;;;;;;5027344;28;20079;-54
2023/05/29 11:22:21;;;;;;;7.80;5.22;;;22.10;72.80;;;;;;5032306;28;20039;-51
2023/05/29 11:25:07;;;;;;;7.63;5.20;;;22.20;72.40;;;;;;5030955;28;20034;-53
2023/05/29 11:27:53;;;;;;;7.45;4.85;;;22.50;71.90;;;;;;5030816;28;20509;-51
2023/05/29 11:30:47;;;;;;;6.70;5.05;;;22.40;71.10;;;;;;5031906;28;20022;-49
2023/05/29 11:33:39;;;;;;;8.57;4.78;;;22.10;71.70;;;;;;5030971;28;20034;-50
2023/05/29 11:36:26;;;;;;;7.38;5.30;;;22.10;71.20;;;;;;5032230;28;20049;-52
2023/05/29 11:39:13;;;;;;;8.43;4.72;;;22.00;71.30;;;;;;5031443;28;20032;-46
2023/05/29 11:42:00;;;;;;;7.88;5.25;;;22.10;71.20;;;;;;5032411;28;20095;-50
2023/05/29 11:44:46;;;;;;;7.80;5.07;;;22.20;71.40;;;;;;5032693;28;20041;-47
2023/05/29 11:47:32;;;;;;;6.43;4.63;;;22.50;71.50;;;;;;5030872;28;20045;-47
2023/05/29 11:50:20;;;;;;;8.80;5.70;;;22.10;70.60;;;;;;5034226;28;20033;-48
2023/05/29 11:53:08;;;;;;;8.10;5.20;;;21.90;71.20;;;;;;5044144;28;20029;-49
2023/05/29 11:56:10;;;;;;;7.15;5.00;;;21.90;70.90;;;;;;5056230;28;20037;-48
2023/05/29 11:58:59;;;;;;;6.75;5.00;;;21.70;71.20;;;;;;5031896;28;20068;-47
2023/05/29 12:01:46;;;;;;;6.75;4.68;;;22.10;71.00;;;;;;5029790;28;20020;-47
2023/05/29 12:04:32;;;;;;;8.98;5.07;;;22.00;71.10;;;;;;5032283;28;20026;-49
2023/05/29 12:07:18;;;;;;;6.63;4.97;;;21.80;71.60;;;;;;5034585;28;20097;-49
2023/05/29 12:10:18;;;;;;;8.48;4.78;;;22.00;71.80;;;;;;5034916;28;20036;-47
2023/05/29 12:13:04;;;;;;;6.80;4.25;;;22.30;70.40;;;;;;5033771;28;20045;-48
2023/05/29 12:15:54;;;;;;;7.70;4.72;;;22.40;70.20;;;;;;5033385;28;20026;-48
2023/05/29 12:18:40;;;;;;;7.65;5.38;;;22.70;70.70;;;;;;5047284;28;20507;-47
2023/05/29 12:21:27;;;;;;;8.40;4.95;;;23.00;69.30;;;;;;5055188;28;20029;-49
2023/05/29 12:24:13;;;;;;;6.20;4.80;;;23.30;69.50;;;;;;5052601;28;20021;-51
2023/05/29 12:27:00;;;;;;;5.78;4.78;;;23.50;68.60;;;;;;5034184;28;20037;-47
2023/05/29 12:29:46;;;;;;;6.90;4.95;;;23.30;68.50;;;;;;5034331;28;20040;-50
2023/05/29 12:32:37;;;;;;;8.48;5.25;;;23.00;69.00;;;;;;5033965;28;20032;-47
2023/05/29 12:35:25;;;;;;;9.32;4.93;;;22.80;68.70;;;;;;5034459;28;20029;-48
2023/05/29 12:38:11;;;;;;;7.22;5.20;;;22.50;68.70;;;;;;5033707;28;20168;-48
2023/05/29 12:40:57;;;;;;;8.77;5.32;;;22.80;69.30;;;;;;5034227;28;20502;-48
2023/05/29 12:43:43;;;;;;;7.55;4.90;;;23.20;68.30;;;;;;5033506;28;20053;-49
2023/05/29 12:46:37;;;;;;;7.88;5.03;;;23.70;68.60;;;;;;5047220;28;20029;-48
2023/05/29 12:49:26;;;;;;;6.70;4.97;;;23.50;68.20;;;;;;5053145;28;20021;-47
2023/05/29 12:52:12;;;;;;;9.77;5.28;;;23.00;68.70;;;;;;5053564;28;20108;-48
2023/05/29 12:54:58;;;;;;;6.30;5.07;;;22.60;69.70;;;;;;5052676;28;20567;-48
2023/05/29 12:57:46;;;;;;;8.38;5.50;;;22.30;70.80;;;;;;5040374;28;20033;-48
2023/05/29 13:00:34;;;;;;;11.40;6.40;;;22.60;71.40;;;;;;5049749;28;20041;-49
2023/05/29 13:03:20;;;;;;;9.57;6.45;;;23.10;71.20;;;;;;5053027;28;20025;-48
2023/05/29 13:06:06;;;;;;;7.47;5.50;;;23.30;68.90;;;;;;5043162;28;20030;-48
2023/05/29 13:08:53;;;;;;;7.43;4.55;;;23.00;68.90;;;;;;5034069;28;20064;-50
2023/05/29 13:11:39;;;;;;;8.25;5.40;;;22.90;69.10;;;;;;5034152;28;20026;-50
2023/05/29 13:14:25;;;;;;;8.32;5.20;;;22.80;69.10;;;;;;5046503;28;20374;-49
2023/05/29 13:17:11;;;;;;;8.45;5.88;;;22.60;69.00;;;;;;5049111;28;20052;-48
2023/05/29 13:19:57;;;;;;;7.35;5.10;;;22.50;69.60;;;;;;5050681;28;20063;-48
2023/05/29 13:22:44;;;;;;;7.78;5.30;;;22.60;70.50;;;;;;5052138;28;20032;-46
2023/05/29 13:25:30;;;;;;;7.43;5.68;;;22.50;70.00;;;;;;5051088;28;20033;-49
2023/05/29 13:28:16;;;;;;;7.55;4.97;;;22.60;69.80;;;;;;5039346;28;20048;-50
2023/05/29 13:31:02;;;;;;;10.70;5.47;;;22.50;70.10;;;;;;5033476;28;20030;-48
2023/05/29 13:33:48;;;;;;;8.80;5.45;;;22.40;70.10;;;;;;5033512;28;20555;-50
2023/05/29 13:36:35;;;;;;;8.13;5.78;;;22.60;70.30;;;;;;5033140;28;20116;-49
2023/05/29 13:39:21;;;;;;;10.10;5.22;;;23.30;68.70;;;;;;5033630;28;20109;-46
2023/05/29 13:42:11;;;;;;;8.52;5.53;;;23.80;68.10;;;;;;5045856;28;20047;-48
2023/05/29 13:44:57;;;;;;;7.85;5.60;;;24.20;66.40;;;;;;5052526;28;20029;-50
2023/05/29 13:47:43;;;;;;;7.35;5.15;;;24.20;67.20;;;;;;5051745;28;20111;-51
2023/05/29 13:50:29;;;;;;;11.10;5.70;;;24.30;66.00;;;;;;5051891;28;20028;-52
2023/05/29 13:53:15;;;;;;;7.72;4.90;;;24.00;66.60;;;;;;5051881;28;20497;-52
2023/05/29 13:56:01;;;;;;;7.53;5.03;;;23.90;66.60;;;;;;5050195;28;20063;-50
2023/05/29 13:58:47;;;;;;;7.93;5.10;;;24.40;66.30;;;;;;5060491;28;20039;-51
2023/05/29 14:01:33;;;;;;;9.75;5.95;;;24.50;65.30;;;;;;5033680;28;20112;-50
2023/05/29 14:04:19;;;;;;;7.55;5.50;;;24.40;65.10;;;;;;5033282;28;20037;-50
2023/05/29 14:07:05;;;;;;;6.40;5.70;;;24.10;65.60;;;;;;5033021;28;20029;-50
2023/05/29 14:09:51;;;;;;;6.75;5.32;;;24.30;66.00;;;;;;5049645;28;20033;-54
2023/05/29 14:12:37;;;;;;;8.63;5.40;;;24.40;65.90;;;;;;5049388;28;20021;-48
2023/05/29 14:15:23;;;;;;;10.10;5.43;;;24.60;65.40;;;;;;5051867;28;20030;-50
2023/05/29 14:18:09;;;;;;;10.88;5.65;;;24.80;65.80;;;;;;5039051;28;20029;-47
2023/05/29 14:20:55;;;;;;;9.77;5.75;;;24.70;64.70;;;;;;5033280;28;20025;-49
2023/05/29 14:23:41;;;;;;;7.47;5.53;;;24.30;65.50;;;;;;5048739;28;20029;-46
2023/05/29 14:26:27;;;;;;;9.02;5.30;;;24.40;66.90;;;;;;5050993;28;20489;-46